Aviation Digital Data Service (ADDS)

Output produced by METARs form (1006 UTC 23 October 2017)
found at http://aviationweather.gov/adds/metars/
 
KFAY 230540Z 2306/2406 11003KT P6SM FEW035 FEW080 SCT250 
     TEMPO 2309/2311 3SM BR 
     FM231500 14014G23KT P6SM BKN035 BKN250 
     FM240100 15014G24KT 2SM SHRA BKN015 OVC030 
     TEMPO 2401/2404 20025G45KT 3/4SM +TSRA BKN007 OVC015CB